Time;durP1;ratioP1;P1;durP2;ratioP2;P2;SDS_P1;SDS_P2;PMS_P1;PMS_P2;Temp;Humidity;BMP_temperature;BMP_pressure;BME280_temperature;BME280_humidity;BME280_pressure;Samples;Min_cycle;Max_cycle;Signal;HPM_P1;HPM_P2
2024/04/01 00:01:55;;;;;;;16.00;3.75;;;;;;;;;;4948189;28;20039;-58
2024/04/01 00:04:20;;;;;;;17.63;3.72;;;;;;;;;;4965221;28;20043;-58
2024/04/01 00:06:45;;;;;;;19.42;3.80;;;;;;;;;;4953018;28;20039;-58
2024/04/01 00:09:11;;;;;;;17.33;3.97;;;;;;;;;;4967547;28;20039;-58
2024/04/01 00:11:36;;;;;;;15.02;3.47;;;;;;;;;;4967444;28;20918;-58
2024/04/01 00:14:01;;;;;;;17.77;3.78;;;;;;;;;;4967356;28;20038;-57
2024/04/01 00:16:26;;;;;;;19.75;4.47;;;;;;;;;;4950472;28;20039;-58
2024/04/01 00:18:52;;;;;;;18.55;4.60;;;;;;;;;;4950690;28;20537;-58
2024/04/01 00:21:17;;;;;;;17.38;3.97;;;;;;;;;;4963096;28;20486;-58
2024/04/01 00:23:43;;;;;;;18.02;3.78;;;;;;;;;;4954653;28;20063;-58
2024/04/01 00:26:09;;;;;;;15.70;3.30;;;;;;;;;;4955595;28;20098;-58
2024/04/01 00:28:34;;;;;;;11.95;3.03;;;;;;;;;;4965070;28;20035;-59
2024/04/01 00:31:00;;;;;;;17.98;3.50;;;;;;;;;;4967928;28;20035;-59
2024/04/01 00:33:25;;;;;;;14.38;3.70;;;;;;;;;;4966869;28;20071;-58
2024/04/01 00:35:50;;;;;;;22.48;4.43;;;;;;;;;;4955262;28;20459;-58
2024/04/01 00:38:16;;;;;;;20.70;3.92;;;;;;;;;;4948421;28;20129;-59
2024/04/01 00:40:41;;;;;;;14.75;4.13;;;;;;;;;;4964413;28;20031;-61
2024/04/01 00:43:06;;;;;;;13.88;3.53;;;;;;;;;;4946684;28;20046;-59
2024/04/01 00:45:32;;;;;;;14.60;3.30;;;;;;;;;;4960745;28;20038;-60
2024/04/01 00:47:59;;;;;;;18.10;3.72;;;;;;;;;;4959215;28;20039;-58
2024/04/01 00:50:26;;;;;;;17.98;3.92;;;;;;;;;;4961220;28;20089;-58
2024/04/01 00:52:51;;;;;;;18.27;3.55;;;;;;;;;;4964715;28;20081;-58
2024/04/01 00:55:16;;;;;;;17.10;3.33;;;;;;;;;;4968197;28;20441;-58
2024/04/01 00:57:42;;;;;;;17.45;3.60;;;;;;;;;;4947434;28;20557;-57
2024/04/01 01:00:07;;;;;;;13.60;3.25;;;;;;;;;;4963516;28;20082;-56
2024/04/01 01:02:33;;;;;;;15.65;3.33;;;;;;;;;;4959300;28;20061;-58
2024/04/01 01:04:58;;;;;;;15.15;3.65;;;;;;;;;;4947142;28;20164;-59
2024/04/01 01:07:23;;;;;;;15.60;3.22;;;;;;;;;;4947201;28;20039;-60
2024/04/01 01:09:49;;;;;;;15.15;3.30;;;;;;;;;;4946684;28;20184;-60
2024/04/01 01:12:14;;;;;;;16.33;3.30;;;;;;;;;;4932184;28;20136;-58
2024/04/01 01:14:39;;;;;;;15.73;3.38;;;;;;;;;;4943453;28;20036;-61
2024/04/01 01:17:05;;;;;;;11.85;2.85;;;;;;;;;;4954871;28;20042;-57
2024/04/01 01:19:30;;;;;;;17.90;3.60;;;;;;;;;;4963819;28;20459;-58
2024/04/01 01:22:05;;;;;;;14.73;3.30;;;;;;;;;;4959185;28;20141;-60
2024/04/01 01:24:32;;;;;;;14.32;3.70;;;;;;;;;;4956230;28;20073;-57
2024/04/01 01:26:57;;;;;;;15.25;3.33;;;;;;;;;;4949494;28;20425;-58
2024/04/01 01:29:23;;;;;;;17.08;3.70;;;;;;;;;;4949083;28;20039;-58
2024/04/01 01:31:48;;;;;;;17.45;3.70;;;;;;;;;;4950517;28;20071;-57
2024/04/01 01:34:13;;;;;;;17.33;3.08;;;;;;;;;;4966025;28;20115;-57
2024/04/01 01:36:39;;;;;;;18.52;4.00;;;;;;;;;;4967308;28;20037;-58
2024/04/01 01:39:05;;;;;;;16.88;4.00;;;;;;;;;;4966388;28;20089;-57
2024/04/01 01:41:31;;;;;;;16.23;3.15;;;;;;;;;;4959075;28;20045;-58
2024/04/01 01:43:56;;;;;;;15.20;3.08;;;;;;;;;;4959296;28;20519;-57
2024/04/01 01:46:21;;;;;;;11.40;3.13;;;;;;;;;;4967573;28;20097;-57
2024/04/01 01:48:46;;;;;;;16.13;3.38;;;;;;;;;;4950392;28;20554;-58
2024/04/01 01:51:12;;;;;;;16.40;3.40;;;;;;;;;;4961704;28;20065;-58
2024/04/01 01:53:37;;;;;;;16.60;3.65;;;;;;;;;;4955464;28;20040;-58
2024/04/01 01:56:02;;;;;;;14.90;2.92;;;;;;;;;;4961986;28;20094;-58
2024/04/01 01:58:28;;;;;;;14.10;2.90;;;;;;;;;;4963264;28;20596;-58
2024/04/01 02:00:53;;;;;;;13.55;3.30;;;;;;;;;;4952995;28;20091;-58
2024/04/01 02:03:18;;;;;;;13.77;3.28;;;;;;;;;;4968171;28;20062;-58
2024/04/01 02:05:44;;;;;;;12.38;3.05;;;;;;;;;;4948224;28;20035;-58
2024/04/01 02:08:09;;;;;;;14.73;3.60;;;;;;;;;;4950425;28;20039;-60
2024/04/01 02:10:36;;;;;;;12.13;2.92;;;;;;;;;;4956797;28;20050;-57
2024/04/01 02:13:02;;;;;;;13.73;3.38;;;;;;;;;;4954569;28;20162;-58
2024/04/01 02:15:27;;;;;;;11.38;2.58;;;;;;;;;;4951453;28;20102;-57
2024/04/01 02:17:53;;;;;;;12.65;3.55;;;;;;;;;;4949402;28;20447;-57
2024/04/01 02:20:19;;;;;;;14.80;2.95;;;;;;;;;;4973627;28;20055;-57
2024/04/01 02:22:44;;;;;;;13.38;2.70;;;;;;;;;;4948876;28;20459;-57
2024/04/01 02:25:11;;;;;;;13.90;2.95;;;;;;;;;;4949066;28;20035;-57
2024/04/01 02:27:37;;;;;;;13.07;2.97;;;;;;;;;;4941144;28;20344;-57
2024/04/01 02:30:02;;;;;;;12.40;3.17;;;;;;;;;;4966769;28;20133;-58
2024/04/01 02:32:28;;;;;;;13.48;3.00;;;;;;;;;;4951941;28;20049;-58
2024/04/01 02:34:53;;;;;;;12.15;2.60;;;;;;;;;;4959420;28;20666;-59
2024/04/01 02:37:18;;;;;;;14.98;3.35;;;;;;;;;;4947959;28;20059;-58
2024/04/01 02:39:43;;;;;;;14.40;3.00;;;;;;;;;;4952747;28;20023;-58
2024/04/01 02:42:09;;;;;;;11.10;2.90;;;;;;;;;;4953129;28;20101;-57
2024/04/01 02:44:34;;;;;;;14.63;3.08;;;;;;;;;;4958083;28;20043;-58
2024/04/01 02:46:59;;;;;;;14.20;2.67;;;;;;;;;;4966342;28;20031;-57
2024/04/01 02:49:25;;;;;;;10.43;2.63;;;;;;;;;;4965141;28;20396;-57
2024/04/01 02:51:50;;;;;;;10.40;3.00;;;;;;;;;;4966159;28;20050;-57
2024/04/01 02:54:15;;;;;;;16.50;3.25;;;;;;;;;;4952196;28;20032;-58
2024/04/01 02:56:40;;;;;;;11.82;3.03;;;;;;;;;;4966611;28;20039;-58
2024/04/01 02:59:09;;;;;;;9.57;2.70;;;;;;;;;;4963496;28;20027;-58
2024/04/01 03:01:35;;;;;;;17.90;2.38;;;;;;;;;;4967465;28;20396;-58
2024/04/01 03:04:00;;;;;;;12.05;3.00;;;;;;;;;;4967307;28;20038;-59
2024/04/01 03:06:27;;;;;;;9.52;2.13;;;;;;;;;;4947131;28;20043;-58
2024/04/01 03:08:52;;;;;;;15.80;2.83;;;;;;;;;;4963173;28;20086;-59
2024/04/01 03:11:17;;;;;;;10.90;2.88;;;;;;;;;;4947867;28;20031;-58
2024/04/01 03:13:43;;;;;;;15.75;3.13;;;;;;;;;;4958874;28;20030;-58
2024/04/01 03:16:10;;;;;;;12.73;2.63;;;;;;;;;;4950867;28;20572;-58
2024/04/01 03:18:35;;;;;;;11.38;2.42;;;;;;;;;;4958218;28;20041;-59
2024/04/01 03:21:01;;;;;;;10.45;2.15;;;;;;;;;;4954840;28;20031;-58
2024/04/01 03:23:26;;;;;;;9.45;2.67;;;;;;;;;;4948069;28;20515;-58
2024/04/01 03:25:51;;;;;;;13.07;3.28;;;;;;;;;;4964438;28;20146;-58
2024/04/01 03:28:20;;;;;;;11.43;2.53;;;;;;;;;;4964573;28;20279;-60
2024/04/01 03:30:48;;;;;;;16.90;3.25;;;;;;;;;;4961279;28;20015;-57
2024/04/01 03:33:13;;;;;;;14.65;2.65;;;;;;;;;;4961671;28;20041;-57
2024/04/01 03:35:39;;;;;;;10.80;2.55;;;;;;;;;;4950009;28;20019;-58
2024/04/01 03:38:05;;;;;;;12.55;2.15;;;;;;;;;;4948468;28;20348;-57
2024/04/01 03:40:30;;;;;;;7.40;2.17;;;;;;;;;;4958837;28;20019;-58
2024/04/01 03:42:55;;;;;;;8.13;2.58;;;;;;;;;;4948498;28;20483;-59
2024/04/01 03:45:21;;;;;;;11.65;2.90;;;;;;;;;;4964789;28;20034;-58
2024/04/01 03:47:46;;;;;;;10.38;2.60;;;;;;;;;;4963766;28;20081;-56
2024/04/01 03:50:11;;;;;;;7.65;2.47;;;;;;;;;;4961077;28;20027;-57
2024/04/01 03:52:39;;;;;;;9.40;2.65;;;;;;;;;;4959568;28;20172;-56
2024/04/01 03:55:05;;;;;;;10.07;2.47;;;;;;;;;;4947636;28;20406;-59
2024/04/01 03:57:31;;;;;;;7.28;2.45;;;;;;;;;;4951950;28;20535;-58
2024/04/01 03:59:56;;;;;;;7.43;2.30;;;;;;;;;;4945432;28;20125;-58
2024/04/01 04:02:21;;;;;;;8.93;2.38;;;;;;;;;;4945132;28;20510;-58
2024/04/01 04:04:46;;;;;;;8.77;2.55;;;;;;;;;;4958326;28;20035;-59
2024/04/01 04:07:12;;;;;;;11.70;2.55;;;;;;;;;;4950692;28;20075;-57
2024/04/01 04:09:37;;;;;;;10.02;2.90;;;;;;;;;;4959466;28;20183;-58
2024/04/01 04:12:03;;;;;;;7.90;2.38;;;;;;;;;;4956594;28;20122;-56
2024/04/01 04:14:30;;;;;;;8.02;2.00;;;;;;;;;;4951161;28;20162;-58
2024/04/01 04:16:55;;;;;;;7.90;2.30;;;;;;;;;;4955162;28;20118;-57
2024/04/01 04:19:20;;;;;;;6.60;2.22;;;;;;;;;;4953659;28;20055;-55
2024/04/01 04:21:46;;;;;;;9.18;2.08;;;;;;;;;;4950723;28;20054;-58
2024/04/01 04:24:12;;;;;;;6.70;2.70;;;;;;;;;;4956503;28;20129;-57
2024/04/01 04:26:38;;;;;;;9.68;2.85;;;;;;;;;;4954767;28;20034;-57
2024/04/01 04:29:03;;;;;;;11.38;2.55;;;;;;;;;;4953339;28;20034;-57
2024/04/01 04:31:29;;;;;;;7.32;1.90;;;;;;;;;;4941174;28;20050;-56
2024/04/01 04:33:54;;;;;;;9.43;2.15;;;;;;;;;;4949213;28;20043;-57
2024/04/01 04:36:20;;;;;;;8.60;2.28;;;;;;;;;;4949227;28;20496;-57
2024/04/01 04:38:47;;;;;;;9.48;2.45;;;;;;;;;;4949796;28;20133;-57
2024/04/01 04:41:12;;;;;;;11.68;2.60;;;;;;;;;;4950150;28;20047;-57
2024/04/01 04:43:38;;;;;;;8.30;2.30;;;;;;;;;;4951104;28;20034;-58
2024/04/01 04:46:03;;;;;;;12.27;2.03;;;;;;;;;;4953698;28;20139;-59
2024/04/01 04:48:28;;;;;;;12.02;2.80;;;;;;;;;;4950178;28;20035;-58
2024/04/01 04:50:54;;;;;;;12.55;2.25;;;;;;;;;;4949830;28;20031;-59
2024/04/01 04:53:19;;;;;;;10.50;2.22;;;;;;;;;;4945470;28;20078;-59
2024/04/01 04:55:45;;;;;;;12.20;2.88;;;;;;;;;;4932950;28;20411;-57
2024/04/01 04:58:10;;;;;;;12.57;2.75;;;;;;;;;;4949612;28;20098;-59
2024/04/01 05:00:35;;;;;;;9.27;2.35;;;;;;;;;;4933603;28;20179;-57
2024/04/01 05:03:01;;;;;;;11.73;2.60;;;;;;;;;;4953889;28;20084;-57
2024/04/01 05:05:26;;;;;;;8.45;2.58;;;;;;;;;;4952855;28;20165;-57
2024/04/01 05:07:51;;;;;;;10.25;2.50;;;;;;;;;;4951859;28;20046;-58
2024/04/01 05:10:17;;;;;;;6.60;2.40;;;;;;;;;;4958690;28;20138;-58
2024/04/01 05:12:45;;;;;;;8.90;2.58;;;;;;;;;;4955554;28;20047;-57
2024/04/01 05:15:10;;;;;;;13.48;3.17;;;;;;;;;;4984721;28;20045;-57
2024/04/01 05:17:36;;;;;;;7.60;2.50;;;;;;;;;;4953406;28;20039;-60
2024/04/01 05:20:01;;;;;;;12.43;2.70;;;;;;;;;;4963659;28;20427;-59
2024/04/01 05:22:27;;;;;;;10.60;3.05;;;;;;;;;;4967597;28;20515;-58
2024/04/01 05:24:52;;;;;;;9.23;2.63;;;;;;;;;;4950628;28;20430;-62
2024/04/01 05:27:18;;;;;;;10.40;2.65;;;;;;;;;;4955901;28;20046;-63
2024/04/01 05:29:43;;;;;;;11.68;2.63;;;;;;;;;;4949533;28;21003;-59
2024/04/01 05:32:08;;;;;;;11.73;2.58;;;;;;;;;;4936117;28;20392;-60
2024/04/01 05:34:37;;;;;;;10.88;2.65;;;;;;;;;;4935534;28;20123;-59
2024/04/01 05:37:03;;;;;;;10.48;3.00;;;;;;;;;;4934206;28;20417;-59
2024/04/01 05:39:29;;;;;;;12.75;2.88;;;;;;;;;;4935324;28;21946;-60
2024/04/01 05:41:55;;;;;;;9.27;3.15;;;;;;;;;;4935721;28;20053;-58
2024/04/01 05:44:20;;;;;;;9.65;2.85;;;;;;;;;;4934441;28;20080;-59
2024/04/01 05:46:45;;;;;;;14.38;3.20;;;;;;;;;;4938388;28;20042;-59
2024/04/01 05:49:11;;;;;;;18.08;3.22;;;;;;;;;;4938602;28;20031;-59
2024/04/01 05:51:36;;;;;;;13.00;2.88;;;;;;;;;;4954771;28;20133;-59
2024/04/01 05:54:01;;;;;;;11.15;2.70;;;;;;;;;;4954814;28;20118;-59
2024/04/01 05:56:27;;;;;;;14.45;3.65;;;;;;;;;;4956911;28;20050;-56
2024/04/01 05:58:52;;;;;;;12.75;3.20;;;;;;;;;;4952350;28;20077;-58
2024/04/01 06:01:17;;;;;;;9.55;2.88;;;;;;;;;;4949687;28;20145;-58
2024/04/01 06:03:43;;;;;;;12.07;3.13;;;;;;;;;;4954887;28;20079;-57
2024/04/01 06:06:08;;;;;;;14.30;3.50;;;;;;;;;;4955263;28;20164;-57
2024/04/01 06:08:33;;;;;;;11.50;2.97;;;;;;;;;;4953147;28;20065;-58
2024/04/01 06:11:02;;;;;;;16.75;3.63;;;;;;;;;;4955881;28;20153;-58
2024/04/01 06:13:27;;;;;;;13.68;3.33;;;;;;;;;;4955660;28;20423;-59
2024/04/01 06:15:53;;;;;;;12.25;3.10;;;;;;;;;;4957363;28;20035;-58
2024/04/01 06:18:18;;;;;;;16.75;3.50;;;;;;;;;;4961810;28;20051;-58
2024/04/01 06:20:43;;;;;;;10.93;3.30;;;;;;;;;;4960017;28;20038;-58
2024/04/01 06:23:09;;;;;;;14.57;3.60;;;;;;;;;;4959773;28;20027;-59
2024/04/01 06:25:38;;;;;;;13.88;2.92;;;;;;;;;;4953500;28;20499;-59
2024/04/01 06:28:04;;;;;;;9.82;3.10;;;;;;;;;;4954170;28;20133;-58
2024/04/01 06:30:29;;;;;;;15.55;3.70;;;;;;;;;;4959532;28;20054;-58
2024/04/01 06:32:55;;;;;;;13.50;3.47;;;;;;;;;;4958339;28;20054;-58
2024/04/01 06:35:20;;;;;;;17.80;3.97;;;;;;;;;;4958049;28;20034;-58
2024/04/01 06:37:45;;;;;;;12.63;3.30;;;;;;;;;;4957415;28;20105;-58
2024/04/01 06:40:11;;;;;;;16.42;4.18;;;;;;;;;;4950325;28;20043;-58
2024/04/01 06:42:36;;;;;;;16.05;4.10;;;;;;;;;;4937255;28;20061;-58
2024/04/01 06:45:01;;;;;;;14.45;3.65;;;;;;;;;;4937409;28;20488;-59
2024/04/01 06:47:27;;;;;;;14.73;3.75;;;;;;;;;;4948091;28;20053;-59
2024/04/01 06:49:52;;;;;;;14.48;3.67;;;;;;;;;;4956302;28;20031;-57
2024/04/01 06:52:21;;;;;;;12.57;3.72;;;;;;;;;;4958977;28;20578;-57
2024/04/01 06:54:46;;;;;;;14.50;3.80;;;;;;;;;;4955470;28;20067;-58
2024/04/01 06:57:12;;;;;;;13.13;3.55;;;;;;;;;;4954877;28;20066;-57
2024/04/01 06:59:38;;;;;;;24.50;4.60;;;;;;;;;;4950780;28;20122;-58
2024/04/01 07:02:03;;;;;;;18.80;4.72;;;;;;;;;;4959951;28;20456;-57
2024/04/01 07:04:29;;;;;;;16.15;4.28;;;;;;;;;;4952688;28;20148;-57
2024/04/01 07:06:54;;;;;;;16.02;4.40;;;;;;;;;;4953187;28;20065;-56
2024/04/01 07:09:19;;;;;;;16.45;4.15;;;;;;;;;;4953746;28;20039;-58
2024/04/01 07:12:05;;;;;;;13.25;4.32;;;;;;;;;;4960028;28;20207;-58
2024/04/01 07:14:31;;;;;;;13.13;3.88;;;;;;;;;;4946358;28;20542;-62
2024/04/01 07:16:56;;;;;;;12.80;3.83;;;;;;;;;;4964100;28;20188;-58
2024/04/01 07:19:22;;;;;;;14.00;4.85;;;;;;;;;;4964737;28;20114;-57
2024/04/01 07:21:47;;;;;;;18.48;3.97;;;;;;;;;;4966782;28;20067;-57
2024/04/01 07:24:15;;;;;;;18.92;4.13;;;;;;;;;;4960633;28;20097;-56
2024/04/01 07:26:40;;;;;;;14.32;3.97;;;;;;;;;;4977963;28;20045;-57
2024/04/01 07:29:06;;;;;;;14.40;3.78;;;;;;;;;;4984039;28;20034;-58
2024/04/01 07:31:32;;;;;;;11.65;3.95;;;;;;;;;;4982703;28;20117;-57
2024/04/01 07:33:57;;;;;;;15.25;3.80;;;;;;;;;;4964939;28;20122;-56
2024/04/01 07:36:22;;;;;;;10.82;3.45;;;;;;;;;;4964005;28;20058;-57
2024/04/01 07:38:47;;;;;;;12.18;3.40;;;;;;;;;;4978350;28;20038;-59
2024/04/01 07:41:13;;;;;;;15.48;3.90;;;;;;;;;;4983784;28;20026;-56
2024/04/01 07:43:38;;;;;;;10.27;3.08;;;;;;;;;;4973263;28;20042;-57
2024/04/01 07:46:03;;;;;;;13.15;3.60;;;;;;;;;;4966238;28;20045;-56
2024/04/01 07:48:29;;;;;;;12.98;3.67;;;;;;;;;;4948087;28;20139;-57
2024/04/01 07:51:00;;;;;;;8.68;3.72;;;;;;;;;;4959764;28;20947;-57
2024/04/01 07:53:25;;;;;;;13.48;3.33;;;;;;;;;;4958820;28;20137;-59
2024/04/01 07:55:50;;;;;;;12.65;3.78;;;;;;;;;;4963992;28;20043;-58
2024/04/01 07:58:16;;;;;;;16.25;3.92;;;;;;;;;;4964000;28;20037;-57
2024/04/01 08:00:41;;;;;;;13.20;3.85;;;;;;;;;;4964190;28;20047;-58
2024/04/01 08:03:06;;;;;;;9.80;3.20;;;;;;;;;;4965720;28;20061;-57
2024/04/01 08:05:32;;;;;;;12.82;3.75;;;;;;;;;;4949906;28;20239;-60
2024/04/01 08:07:57;;;;;;;12.95;3.88;;;;;;;;;;4957489;28;20054;-58
2024/04/01 08:10:22;;;;;;;9.88;3.67;;;;;;;;;;4966602;28;20177;-58
2024/04/01 08:12:48;;;;;;;12.60;3.50;;;;;;;;;;4979591;28;20051;-60
2024/04/01 08:15:13;;;;;;;12.07;3.65;;;;;;;;;;4978696;28;20190;-60
2024/04/01 08:17:38;;;;;;;13.07;4.00;;;;;;;;;;4979502;28;20042;-60
2024/04/01 08:20:05;;;;;;;9.75;3.38;;;;;;;;;;4963924;28;20042;-61
2024/04/01 08:22:32;;;;;;;14.05;3.55;;;;;;;;;;4966117;28;20383;-60
2024/04/01 08:24:58;;;;;;;11.43;3.60;;;;;;;;;;4962358;28;20037;-57
2024/04/01 08:27:23;;;;;;;10.45;3.20;;;;;;;;;;4965595;28;20038;-61
2024/04/01 08:29:48;;;;;;;8.35;3.50;;;;;;;;;;4965779;28;20054;-59
2024/04/01 08:32:13;;;;;;;13.57;2.97;;;;;;;;;;4963871;28;20054;-58
2024/04/01 08:34:39;;;;;;;9.25;3.30;;;;;;;;;;4974644;28;20117;-59
2024/04/01 08:37:04;;;;;;;10.27;3.15;;;;;;;;;;4965782;28;20439;-57
2024/04/01 08:39:30;;;;;;;12.68;4.13;;;;;;;;;;4966151;28;20042;-58
2024/04/01 08:41:55;;;;;;;13.98;3.47;;;;;;;;;;4966391;28;20126;-57
2024/04/01 08:44:21;;;;;;;10.40;3.13;;;;;;;;;;4965492;28;20042;-57
2024/04/01 08:46:50;;;;;;;9.80;3.20;;;;;;;;;;4984612;28;20030;-61
2024/04/01 08:49:15;;;;;;;10.85;3.03;;;;;;;;;;4980758;28;20045;-59
2024/04/01 08:51:41;;;;;;;10.65;3.55;;;;;;;;;;4969165;28;20043;-58
2024/04/01 08:54:08;;;;;;;10.20;3.15;;;;;;;;;;4961029;28;20051;-57
2024/04/01 08:56:36;;;;;;;16.15;3.60;;;;;;;;;;4967991;28;20635;-59
2024/04/01 08:59:02;;;;;;;10.43;3.22;;;;;;;;;;4963446;28;20046;-56
2024/04/01 09:01:27;;;;;;;16.73;3.53;;;;;;;;;;4943574;28;20889;-57
2024/04/01 09:03:52;;;;;;;11.18;3.13;;;;;;;;;;4980196;28;20035;-60
2024/04/01 09:06:19;;;;;;;11.15;3.60;;;;;;;;;;4953961;28;20102;-56
2024/04/01 09:08:46;;;;;;;10.70;2.72;;;;;;;;;;4965645;28;20045;-56
2024/04/01 09:11:11;;;;;;;12.65;3.65;;;;;;;;;;4982864;28;20031;-57
2024/04/01 09:13:37;;;;;;;8.10;3.08;;;;;;;;;;4957819;28;20042;-57
2024/04/01 09:16:04;;;;;;;12.23;3.25;;;;;;;;;;4967272;28;20038;-57
2024/04/01 09:18:36;;;;;;;10.68;3.20;;;;;;;;;;4956893;28;20031;-56
2024/04/01 09:21:02;;;;;;;10.90;3.53;;;;;;;;;;4957046;28;20047;-57
2024/04/01 09:23:30;;;;;;;10.70;3.08;;;;;;;;;;4967883;28;20455;-56
2024/04/01 09:25:57;;;;;;;10.68;3.08;;;;;;;;;;4956695;28;20035;-61
2024/04/01 09:28:23;;;;;;;10.98;2.90;;;;;;;;;;4965357;28;20041;-59
2024/04/01 09:30:49;;;;;;;13.98;3.78;;;;;;;;;;4962039;28;20023;-59
2024/04/01 09:33:14;;;;;;;10.43;3.47;;;;;;;;;;4965768;28;20466;-63
2024/04/01 09:35:39;;;;;;;12.65;2.78;;;;;;;;;;4963507;28;20021;-60
2024/04/01 09:38:05;;;;;;;13.52;3.30;;;;;;;;;;4965514;28;20422;-63
2024/04/01 09:40:30;;;;;;;9.55;3.03;;;;;;;;;;4963480;28;20027;-64
2024/04/01 09:42:58;;;;;;;10.57;3.30;;;;;;;;;;4965716;28;20034;-60
2024/04/01 09:45:24;;;;;;;9.25;3.00;;;;;;;;;;4962704;28;20027;-60
2024/04/01 09:47:49;;;;;;;10.52;3.20;;;;;;;;;;4964018;28;20415;-60
2024/04/01 09:50:14;;;;;;;12.80;3.00;;;;;;;;;;4995969;28;20101;-59
2024/04/01 09:52:40;;;;;;;12.35;2.75;;;;;;;;;;4981157;28;20073;-59
2024/04/01 09:55:33;;;;;;;10.63;3.17;;;;;;;;;;4964339;28;21354;-60
2024/04/01 09:58:17;;;;;;;11.48;3.33;;;;;;;;;;4971095;28;20037;-61
2024/04/01 10:01:01;;;;;;;10.82;3.00;;;;;;;;;;4965054;28;20031;-62
2024/04/01 10:03:30;;;;;;;11.55;3.42;;;;;;;;;;4960392;28;20054;-62
2024/04/01 10:06:13;;;;;;;15.10;3.53;;;;;;;;;;4963967;28;20109;-60
2024/04/01 10:08:50;;;;;;;14.80;3.00;;;;;;;;;;4974467;28;20474;-61
2024/04/01 10:11:38;;;;;;;16.13;3.40;;;;;;;;;;4959896;28;20134;-64
2024/04/01 10:14:13;;;;;;;14.63;3.28;;;;;;;;;;4964793;28;20556;-62
2024/04/01 10:16:53;;;;;;;15.32;3.88;;;;;;;;;;4965398;28;20051;-64
2024/04/01 10:19:42;;;;;;;20.48;4.55;;;;;;;;;;4963525;28;20569;-65
2024/04/01 10:22:28;;;;;;;15.65;3.50;;;;;;;;;;4977890;28;20050;-62
2024/04/01 10:25:06;;;;;;;14.68;4.07;;;;;;;;;;4950884;28;20052;-62
2024/04/01 10:27:49;;;;;;;17.08;3.92;;;;;;;;;;4961102;28;20097;-63
2024/04/01 10:30:28;;;;;;;16.35;3.85;;;;;;;;;;4965330;28;20129;-62
2024/04/01 10:32:54;;;;;;;16.02;4.40;;;;;;;;;;4963050;28;20058;-61
2024/04/01 10:35:34;;;;;;;19.58;3.65;;;;;;;;;;4954020;28;20043;-65
2024/04/01 10:38:19;;;;;;;18.20;4.22;;;;;;;;;;4953044;28;20122;-61
2024/04/01 10:40:51;;;;;;;17.17;4.38;;;;;;;;;;4952634;28;20130;-61
2024/04/01 10:43:16;;;;;;;19.05;3.55;;;;;;;;;;4954399;28;20046;-61
2024/04/01 10:45:46;;;;;;;17.73;3.85;;;;;;;;;;4958745;28;20581;-62
2024/04/01 10:48:15;;;;;;;14.43;3.28;;;;;;;;;;4955831;28;20129;-61
2024/04/01 10:50:53;;;;;;;19.50;3.53;;;;;;;;;;4954489;28;20046;-62
2024/04/01 10:53:36;;;;;;;17.52;4.82;;;;;;;;;;4955885;28;20577;-61
2024/04/01 10:56:20;;;;;;;15.60;3.90;;;;;;;;;;4955481;28;20050;-61
2024/04/01 10:59:07;;;;;;;15.68;3.13;;;;;;;;;;4953429;28;20146;-63
2024/04/01 11:01:51;;;;;;;14.25;4.07;;;;;;;;;;4959210;28;20042;-61
2024/04/01 11:04:37;;;;;;;16.92;3.63;;;;;;;;;;4957460;28;20046;-60
2024/04/01 11:07:07;;;;;;;22.35;4.00;;;;;;;;;;4969161;28;20122;-58
2024/04/01 11:09:36;;;;;;;15.88;4.35;;;;;;;;;;4977136;28;20098;-59
2024/04/01 11:12:20;;;;;;;20.10;3.60;;;;;;;;;;4956083;28;20090;-62
2024/04/01 11:14:45;;;;;;;19.98;4.53;;;;;;;;;;4957257;28;20126;-63
2024/04/01 11:17:11;;;;;;;20.95;4.78;;;;;;;;;;4973690;28;20113;-60
2024/04/01 11:19:56;;;;;;;17.50;4.60;;;;;;;;;;4957369;28;20035;-60
2024/04/01 11:22:31;;;;;;;26.08;4.80;;;;;;;;;;4951847;28;20062;-61
2024/04/01 11:25:01;;;;;;;18.15;5.07;;;;;;;;;;4954145;28;20027;-62
2024/04/01 11:27:26;;;;;;;;;;;;;;;;;;4953512;28;20039;-61
2024/04/01 11:30:06;;;;;;;19.20;4.97;;;;;;;;;;4948369;28;19925;-60
2024/04/01 11:32:38;;;;;;;19.23;5.00;;;;;;;;;;4934627;28;20044;-61
2024/04/01 11:35:06;;;;;;;17.85;5.00;;;;;;;;;;4940033;28;20396;-61
2024/04/01 11:37:40;;;;;;;18.42;5.35;;;;;;;;;;4948213;28;20079;-61
2024/04/01 11:40:06;;;;;;;16.52;4.28;;;;;;;;;;4950921;28;20814;-61
2024/04/01 11:42:32;;;;;;;20.55;4.72;;;;;;;;;;4950704;28;20066;-60
2024/04/01 11:44:57;;;;;;;23.52;5.30;;;;;;;;;;4953651;28;20463;-65
2024/04/01 11:47:23;;;;;;;18.42;4.78;;;;;;;;;;4951564;28;20042;-63
2024/04/01 11:49:49;;;;;;;21.60;5.35;;;;;;;;;;4945973;28;20090;-58
2024/04/01 11:52:16;;;;;;;25.55;5.65;;;;;;;;;;4959054;28;20035;-61
2024/04/01 11:54:41;;;;;;;23.92;5.53;;;;;;;;;;4953792;28;20110;-60
2024/04/01 11:57:06;;;;;;;24.92;5.63;;;;;;;;;;4953015;28;20030;-61
2024/04/01 11:59:32;;;;;;;26.58;5.60;;;;;;;;;;4955199;28;20185;-62
2024/04/01 12:01:57;;;;;;;24.83;5.85;;;;;;;;;;4952042;28;20031;-59
2024/04/01 12:04:23;;;;;;;24.42;4.70;;;;;;;;;;4953541;28;20033;-60
2024/04/01 12:06:49;;;;;;;27.15;5.65;;;;;;;;;;4955435;28;20030;-61
2024/04/01 12:09:16;;;;;;;28.50;6.00;;;;;;;;;;4951292;28;20112;-59
2024/04/01 12:11:42;;;;;;;20.58;4.90;;;;;;;;;;4958394;28;20543;-60
2024/04/01 12:14:08;;;;;;;25.15;5.70;;;;;;;;;;4952614;28;20129;-62
2024/04/01 12:16:33;;;;;;;23.90;5.40;;;;;;;;;;4951451;28;20679;-59
2024/04/01 12:19:00;;;;;;;23.90;5.78;;;;;;;;;;4955264;28;20046;-62
2024/04/01 12:21:26;;;;;;;23.35;5.88;;;;;;;;;;4954505;28;20034;-63
2024/04/01 12:23:52;;;;;;;24.67;5.97;;;;;;;;;;4976169;28;20475;-59
2024/04/01 12:26:17;;;;;;;26.33;5.88;;;;;;;;;;4957775;28;20118;-59
2024/04/01 12:28:43;;;;;;;18.75;5.55;;;;;;;;;;4956760;28;20043;-62
2024/04/01 12:31:10;;;;;;;27.13;5.45;;;;;;;;;;4962899;28;20035;-61
2024/04/01 12:33:36;;;;;;;22.02;5.10;;;;;;;;;;4961873;28;20086;-60
2024/04/01 12:36:01;;;;;;;22.20;5.63;;;;;;;;;;4964836;28;20138;-61
2024/04/01 12:38:31;;;;;;;28.05;5.80;;;;;;;;;;4959091;28;20149;-61
2024/04/01 12:40:56;;;;;;;25.67;5.23;;;;;;;;;;4965062;28;20438;-61
2024/04/01 12:43:26;;;;;;;25.27;5.65;;;;;;;;;;4962902;28;20377;-62
2024/04/01 12:45:51;;;;;;;;;;;;;;;;;;4961834;28;20038;-62
2024/04/01 12:48:16;;;;;;;26.73;5.37;;;;;;;;;;4961639;28;20008;-60
2024/04/01 12:50:45;;;;;;;22.55;5.68;;;;;;;;;;4963983;28;20418;-62
2024/04/01 12:53:19;;;;;;;25.05;5.95;;;;;;;;;;4963920;28;20074;-59
2024/04/01 12:55:47;;;;;;;26.58;5.75;;;;;;;;;;4953562;28;20552;-60
2024/04/01 12:58:18;;;;;;;26.05;5.55;;;;;;;;;;4963449;28;20398;-63
2024/04/01 13:00:44;;;;;;;28.52;6.30;;;;;;;;;;4968681;28;20049;-59
2024/04/01 13:03:10;;;;;;;32.47;5.68;;;;;;;;;;4967418;28;20082;-60
2024/04/01 13:05:41;;;;;;;26.30;5.57;;;;;;;;;;4961172;28;20046;-61
2024/04/01 13:08:24;;;;;;;24.50;5.60;;;;;;;;;;4959206;28;20193;-63
2024/04/01 13:10:56;;;;;;;30.02;6.35;;;;;;;;;;4956500;28;20042;-65
2024/04/01 13:13:29;;;;;;;28.35;5.65;;;;;;;;;;4957991;28;20208;-63
2024/04/01 13:15:54;;;;;;;33.42;6.90;;;;;;;;;;4956511;28;20064;-61
2024/04/01 13:18:26;;;;;;;25.83;6.55;;;;;;;;;;4963186;28;20121;-58
2024/04/01 13:20:57;;;;;;;27.45;6.85;;;;;;;;;;4973851;28;20041;-61
2024/04/01 13:23:26;;;;;;;30.88;6.43;;;;;;;;;;4955428;28;20058;-60
2024/04/01 13:25:54;;;;;;;30.83;5.82;;;;;;;;;;4964330;28;20044;-60
2024/04/01 13:28:35;;;;;;;29.48;5.93;;;;;;;;;;4962976;28;20415;-60
2024/04/01 13:31:19;;;;;;;29.02;6.97;;;;;;;;;;4958140;28;20638;-66
2024/04/01 13:33:53;;;;;;;31.85;6.00;;;;;;;;;;4960784;28;20429;-64
2024/04/01 13:36:24;;;;;;;32.47;6.10;;;;;;;;;;4964328;28;20395;-60
2024/04/01 13:38:55;;;;;;;36.55;7.35;;;;;;;;;;4967362;28;20038;-61
2024/04/01 13:41:47;;;;;;;33.88;6.55;;;;;;;;;;4974325;28;20039;-62
2024/04/01 13:44:28;;;;;;;29.67;6.38;;;;;;;;;;4955414;28;20414;-63
2024/04/01 13:46:53;;;;;;;34.70;6.80;;;;;;;;;;4966664;28;20117;-67
2024/04/01 13:49:25;;;;;;;33.85;6.88;;;;;;;;;;4961710;28;20031;-64
2024/04/01 13:52:02;;;;;;;36.40;6.55;;;;;;;;;;4948679;28;20039;-61
2024/04/01 13:54:40;;;;;;;36.40;6.80;;;;;;;;;;4961670;28;20848;-61
2024/04/01 13:57:25;;;;;;;30.13;6.60;;;;;;;;;;4957013;28;20047;-63
2024/04/01 13:59:51;;;;;;;34.97;7.32;;;;;;;;;;4965580;28;20031;-62
2024/04/01 14:02:19;;;;;;;34.65;6.90;;;;;;;;;;4948784;28;20034;-63
2024/04/01 14:05:05;;;;;;;25.42;6.57;;;;;;;;;;4959413;28;20043;-63
2024/04/01 14:07:45;;;;;;;35.25;6.57;;;;;;;;;;4953985;28;20046;-61
2024/04/01 14:10:17;;;;;;;33.78;7.57;;;;;;;;;;4946505;28;20567;-64
2024/04/01 14:12:42;;;;;;;32.15;6.22;;;;;;;;;;4954688;28;20043;-62
2024/04/01 14:15:11;;;;;;;30.02;7.25;;;;;;;;;;4964518;28;20118;-62
2024/04/01 14:17:36;;;;;;;33.03;7.20;;;;;;;;;;4967378;28;20081;-62
2024/04/01 14:20:06;;;;;;;33.15;7.63;;;;;;;;;;4963101;28;20062;-62
2024/04/01 14:22:32;;;;;;;38.22;7.80;;;;;;;;;;4964723;28;20050;-60
2024/04/01 14:24:58;;;;;;;37.38;7.38;;;;;;;;;;4966642;28;20043;-61
2024/04/01 14:27:23;;;;;;;35.28;6.72;;;;;;;;;;4966674;28;20037;-62
2024/04/01 14:29:49;;;;;;;27.42;6.97;;;;;;;;;;4975666;28;20038;-64
2024/04/01 14:32:16;;;;;;;34.53;7.10;;;;;;;;;;4966817;28;20530;-61
2024/04/01 14:34:41;;;;;;;30.20;7.45;;;;;;;;;;4974959;28;20103;-65